sensor_id;sensor_type;location;lat;lon;timestamp;temperature;humidity
30648;DHT22;17683;53.360;9.736;2023-02-01T00:01:43;5.30;99.90
30648;DHT22;17683;53.360;9.736;2023-02-01T00:04:09;5.30;99.90
30648;DHT22;17683;53.360;9.736;2023-02-01T00:06:35;5.20;99.90
30648;DHT22;17683;53.360;9.736;2023-02-01T00:09:00;5.30;99.90
30648;DHT22;17683;53.360;9.736;2023-02-01T00:11:26;5.30;99.90
30648;DHT22;17683;53.360;9.736;2023-02-01T00:13:52;5.30;99.90
30648;DHT22;17683;53.360;9.736;2023-02-01T00:16:20;5.30;99.90
30648;DHT22;17683;53.360;9.736;2023-02-01T00:18:49;5.30;99.90
30648;DHT22;17683;53.360;9.736;2023-02-01T00:21:17;5.30;99.90
30648;DHT22;17683;53.360;9.736;2023-02-01T00:23:43;5.30;99.90
30648;DHT22;17683;53.360;9.736;2023-02-01T00:26:39;5.30;99.90
30648;DHT22;17683;53.360;9.736;2023-02-01T00:29:09;5.30;99.90
30648;DHT22;17683;53.360;9.736;2023-02-01T00:31:35;5.30;99.90
30648;DHT22;17683;53.360;9.736;2023-02-01T00:34:01;5.30;99.90
30648;DHT22;17683;53.360;9.736;2023-02-01T00:36:27;5.30;99.90
30648;DHT22;17683;53.360;9.736;2023-02-01T00:38:53;5.30;99.90
30648;DHT22;17683;53.360;9.736;2023-02-01T00:41:20;5.30;99.90
30648;DHT22;17683;53.360;9.736;2023-02-01T00:43:47;5.30;99.90
30648;DHT22;17683;53.360;9.736;2023-02-01T00:46:14;5.40;99.90
30648;DHT22;17683;53.360;9.736;2023-02-01T00:48:40;5.40;99.90
30648;DHT22;17683;53.360;9.736;2023-02-01T00:51:08;5.40;99.90
30648;DHT22;17683;53.360;9.736;2023-02-01T00:53:35;5.40;99.90
30648;DHT22;17683;53.360;9.736;2023-02-01T00:56:00;5.30;99.90
30648;DHT22;17683;53.360;9.736;2023-02-01T00:58:26;5.40;99.90
30648;DHT22;17683;53.360;9.736;2023-02-01T01:01:22;5.40;99.90
30648;DHT22;17683;53.360;9.736;2023-02-01T01:03:51;5.40;99.90
30648;DHT22;17683;53.360;9.736;2023-02-01T01:06:20;5.40;99.90
30648;DHT22;17683;53.360;9.736;2023-02-01T01:08:47;5.40;99.90
30648;DHT22;17683;53.360;9.736;2023-02-01T01:11:16;5.40;99.90
30648;DHT22;17683;53.360;9.736;2023-02-01T01:13:43;5.40;99.90
30648;DHT22;17683;53.360;9.736;2023-02-01T01:16:11;5.40;99.90
30648;DHT22;17683;53.360;9.736;2023-02-01T01:18:37;5.40;99.90
30648;DHT22;17683;53.360;9.736;2023-02-01T01:21:07;5.50;99.90
30648;DHT22;17683;53.360;9.736;2023-02-01T01:23:34;5.50;99.90
30648;DHT22;17683;53.360;9.736;2023-02-01T01:26:00;5.50;99.90
30648;DHT22;17683;53.360;9.736;2023-02-01T01:28:29;5.50;99.90
30648;DHT22;17683;53.360;9.736;2023-02-01T01:30:55;5.50;99.90
30648;DHT22;17683;53.360;9.736;2023-02-01T01:33:21;5.50;99.90
30648;DHT22;17683;53.360;9.736;2023-02-01T01:35:46;5.50;99.90
30648;DHT22;17683;53.360;9.736;2023-02-01T01:38:12;5.50;99.90
30648;DHT22;17683;53.360;9.736;2023-02-01T01:40:38;5.50;99.90
30648;DHT22;17683;53.360;9.736;2023-02-01T01:43:13;5.50;99.90
30648;DHT22;17683;53.360;9.736;2023-02-01T01:45:39;5.50;99.90
30648;DHT22;17683;53.360;9.736;2023-02-01T01:48:25;5.40;99.90
30648;DHT22;17683;53.360;9.736;2023-02-01T01:51:02;5.50;99.90
30648;DHT22;17683;53.360;9.736;2023-02-01T01:54:11;5.40;99.90
30648;DHT22;17683;53.360;9.736;2023-02-01T01:56:38;5.40;99.90
30648;DHT22;17683;53.360;9.736;2023-02-01T01:59:06;5.40;99.90
30648;DHT22;17683;53.360;9.736;2023-02-01T02:01:32;5.40;99.90
30648;DHT22;17683;53.360;9.736;2023-02-01T02:03:58;5.40;99.90
30648;DHT22;17683;53.360;9.736;2023-02-01T02:09:03;5.40;99.90
30648;DHT22;17683;53.360;9.736;2023-02-01T02:11:29;5.50;99.90
30648;DHT22;17683;53.360;9.736;2023-02-01T02:13:55;5.40;99.90
30648;DHT22;17683;53.360;9.736;2023-02-01T02:16:32;5.40;99.90
30648;DHT22;17683;53.360;9.736;2023-02-01T02:27:56;5.40;99.90
30648;DHT22;17683;53.360;9.736;2023-02-01T02:38:31;5.50;99.90
30648;DHT22;17683;53.360;9.736;2023-02-01T02:41:15;5.50;99.90
30648;DHT22;17683;53.360;9.736;2023-02-01T02:53:18;5.40;99.90
30648;DHT22;17683;53.360;9.736;2023-02-01T02:56:06;5.40;99.90
30648;DHT22;17683;53.360;9.736;2023-02-01T02:58:51;5.40;99.90
30648;DHT22;17683;53.360;9.736;2023-02-01T03:01:38;5.40;99.90
30648;DHT22;17683;53.360;9.736;2023-02-01T03:04:23;5.40;99.90
30648;DHT22;17683;53.360;9.736;2023-02-01T03:06:49;5.40;99.90
30648;DHT22;17683;53.360;9.736;2023-02-01T03:09:35;5.40;99.90
30648;DHT22;17683;53.360;9.736;2023-02-01T03:12:07;5.40;99.90
30648;DHT22;17683;53.360;9.736;2023-02-01T03:14:57;5.40;99.90
30648;DHT22;17683;53.360;9.736;2023-02-01T03:17:31;5.40;99.90
30648;DHT22;17683;53.360;9.736;2023-02-01T03:20:00;5.40;99.90
30648;DHT22;17683;53.360;9.736;2023-02-01T03:22:28;5.40;99.90
30648;DHT22;17683;53.360;9.736;2023-02-01T03:25:06;5.40;99.90
30648;DHT22;17683;53.360;9.736;2023-02-01T03:30:23;5.20;99.90
30648;DHT22;17683;53.360;9.736;2023-02-01T03:32:55;5.20;99.90
30648;DHT22;17683;53.360;9.736;2023-02-01T03:35:50;5.10;99.90
30648;DHT22;17683;53.360;9.736;2023-02-01T03:40:39;5.00;99.90
30648;DHT22;17683;53.360;9.736;2023-02-01T03:43:11;4.90;99.90
30648;DHT22;17683;53.360;9.736;2023-02-01T03:45:41;4.90;99.90
30648;DHT22;17683;53.360;9.736;2023-02-01T03:48:09;4.80;99.90
30648;DHT22;17683;53.360;9.736;2023-02-01T03:50:40;4.70;99.90
30648;DHT22;17683;53.360;9.736;2023-02-01T03:53:12;4.70;99.90
30648;DHT22;17683;53.360;9.736;2023-02-01T03:55:41;4.70;99.90
30648;DHT22;17683;53.360;9.736;2023-02-01T03:58:19;4.70;99.90
30648;DHT22;17683;53.360;9.736;2023-02-01T04:00:56;4.70;99.90
30648;DHT22;17683;53.360;9.736;2023-02-01T04:03:23;4.70;99.90
30648;DHT22;17683;53.360;9.736;2023-02-01T04:05:50;4.70;99.90
30648;DHT22;17683;53.360;9.736;2023-02-01T04:08:17;4.70;99.90
30648;DHT22;17683;53.360;9.736;2023-02-01T04:10:43;4.70;99.90
30648;DHT22;17683;53.360;9.736;2023-02-01T04:13:09;4.70;99.90
30648;DHT22;17683;53.360;9.736;2023-02-01T04:15:35;4.70;99.90
30648;DHT22;17683;53.360;9.736;2023-02-01T04:18:01;4.70;99.90
30648;DHT22;17683;53.360;9.736;2023-02-01T04:20:27;4.80;99.90
30648;DHT22;17683;53.360;9.736;2023-02-01T04:22:53;4.80;99.90
30648;DHT22;17683;53.360;9.736;2023-02-01T04:25:20;4.80;99.90
30648;DHT22;17683;53.360;9.736;2023-02-01T04:27:46;4.80;99.90
30648;DHT22;17683;53.360;9.736;2023-02-01T04:30:13;4.80;99.90
30648;DHT22;17683;53.360;9.736;2023-02-01T04:32:39;4.80;99.90
30648;DHT22;17683;53.360;9.736;2023-02-01T04:35:06;4.90;99.90
30648;DHT22;17683;53.360;9.736;2023-02-01T04:37:32;4.80;99.90
30648;DHT22;17683;53.360;9.736;2023-02-01T04:39:58;4.80;99.90
30648;DHT22;17683;53.360;9.736;2023-02-01T04:42:24;4.80;99.90
30648;DHT22;17683;53.360;9.736;2023-02-01T04:44:49;4.80;99.90
30648;DHT22;17683;53.360;9.736;2023-02-01T04:47:15;4.80;99.90
30648;DHT22;17683;53.360;9.736;2023-02-01T04:49:41;4.70;99.90
30648;DHT22;17683;53.360;9.736;2023-02-01T04:52:07;4.70;99.90
30648;DHT22;17683;53.360;9.736;2023-02-01T04:54:33;4.70;99.90
30648;DHT22;17683;53.360;9.736;2023-02-01T04:56:59;4.60;99.90
30648;DHT22;17683;53.360;9.736;2023-02-01T04:59:25;4.60;99.90
30648;DHT22;17683;53.360;9.736;2023-02-01T05:01:51;4.60;99.90
30648;DHT22;17683;53.360;9.736;2023-02-01T05:04:17;4.50;99.90
30648;DHT22;17683;53.360;9.736;2023-02-01T05:06:44;4.50;99.90
30648;DHT22;17683;53.360;9.736;2023-02-01T05:09:10;4.50;99.90
30648;DHT22;17683;53.360;9.736;2023-02-01T05:11:36;4.50;99.90
30648;DHT22;17683;53.360;9.736;2023-02-01T05:14:20;4.50;99.90
30648;DHT22;17683;53.360;9.736;2023-02-01T05:16:46;4.50;99.90
30648;DHT22;17683;53.360;9.736;2023-02-01T05:19:12;4.50;99.90
30648;DHT22;17683;53.360;9.736;2023-02-01T05:21:38;4.50;99.90
30648;DHT22;17683;53.360;9.736;2023-02-01T05:24:04;4.50;99.90
30648;DHT22;17683;53.360;9.736;2023-02-01T05:26:36;4.40;99.90
30648;DHT22;17683;53.360;9.736;2023-02-01T05:29:02;4.40;99.90
30648;DHT22;17683;53.360;9.736;2023-02-01T05:31:28;4.30;99.90
30648;DHT22;17683;53.360;9.736;2023-02-01T05:33:54;4.30;99.90
30648;DHT22;17683;53.360;9.736;2023-02-01T05:36:20;4.30;99.90
30648;DHT22;17683;53.360;9.736;2023-02-01T05:38:45;4.20;99.90
30648;DHT22;17683;53.360;9.736;2023-02-01T05:41:11;4.20;99.90
30648;DHT22;17683;53.360;9.736;2023-02-01T05:43:37;4.20;99.90
30648;DHT22;17683;53.360;9.736;2023-02-01T05:46:03;4.20;99.90
30648;DHT22;17683;53.360;9.736;2023-02-01T05:48:29;4.10;99.90
30648;DHT22;17683;53.360;9.736;2023-02-01T05:50:55;4.20;99.90
30648;DHT22;17683;53.360;9.736;2023-02-01T05:53:21;4.20;99.90
30648;DHT22;17683;53.360;9.736;2023-02-01T05:55:46;4.20;99.90
30648;DHT22;17683;53.360;9.736;2023-02-01T05:58:12;4.20;99.90
30648;DHT22;17683;53.360;9.736;2023-02-01T06:00:38;4.30;99.90
30648;DHT22;17683;53.360;9.736;2023-02-01T06:03:04;4.30;99.90
30648;DHT22;17683;53.360;9.736;2023-02-01T06:05:30;4.30;99.90
30648;DHT22;17683;53.360;9.736;2023-02-01T06:07:55;4.30;99.90
30648;DHT22;17683;53.360;9.736;2023-02-01T06:10:22;4.30;99.90
30648;DHT22;17683;53.360;9.736;2023-02-01T06:12:48;4.20;99.90
30648;DHT22;17683;53.360;9.736;2023-02-01T06:15:14;4.20;99.90
30648;DHT22;17683;53.360;9.736;2023-02-01T06:17:45;4.20;99.90
30648;DHT22;17683;53.360;9.736;2023-02-01T06:20:13;4.20;99.90
30648;DHT22;17683;53.360;9.736;2023-02-01T06:22:39;4.20;99.90
30648;DHT22;17683;53.360;9.736;2023-02-01T06:25:07;4.20;99.90
30648;DHT22;17683;53.360;9.736;2023-02-01T06:27:33;4.30;99.90
30648;DHT22;17683;53.360;9.736;2023-02-01T06:30:00;4.30;99.90
30648;DHT22;17683;53.360;9.736;2023-02-01T06:32:25;4.30;99.90
30648;DHT22;17683;53.360;9.736;2023-02-01T06:34:51;4.30;99.90
30648;DHT22;17683;53.360;9.736;2023-02-01T06:37:21;4.30;99.90
30648;DHT22;17683;53.360;9.736;2023-02-01T06:39:48;4.30;99.90
30648;DHT22;17683;53.360;9.736;2023-02-01T06:42:14;4.40;99.90
30648;DHT22;17683;53.360;9.736;2023-02-01T06:44:40;4.40;99.90
30648;DHT22;17683;53.360;9.736;2023-02-01T06:47:06;4.30;99.90
30648;DHT22;17683;53.360;9.736;2023-02-01T06:49:31;4.40;99.90
30648;DHT22;17683;53.360;9.736;2023-02-01T06:51:57;4.40;99.90
30648;DHT22;17683;53.360;9.736;2023-02-01T06:54:26;4.40;99.90
30648;DHT22;17683;53.360;9.736;2023-02-01T06:56:52;4.40;99.90
30648;DHT22;17683;53.360;9.736;2023-02-01T06:59:18;4.50;99.90
30648;DHT22;17683;53.360;9.736;2023-02-01T07:01:44;4.50;99.90
30648;DHT22;17683;53.360;9.736;2023-02-01T07:04:12;4.50;99.90
30648;DHT22;17683;53.360;9.736;2023-02-01T07:06:39;4.50;99.90
30648;DHT22;17683;53.360;9.736;2023-02-01T07:09:05;4.50;99.90
30648;DHT22;17683;53.360;9.736;2023-02-01T07:11:31;4.50;99.90
30648;DHT22;17683;53.360;9.736;2023-02-01T07:13:57;4.60;99.90
30648;DHT22;17683;53.360;9.736;2023-02-01T07:16:23;4.70;99.90
30648;DHT22;17683;53.360;9.736;2023-02-01T07:18:50;4.70;99.90
30648;DHT22;17683;53.360;9.736;2023-02-01T07:21:17;4.70;99.90
30648;DHT22;17683;53.360;9.736;2023-02-01T07:23:42;4.70;99.90
30648;DHT22;17683;53.360;9.736;2023-02-01T07:26:11;4.80;99.90
30648;DHT22;17683;53.360;9.736;2023-02-01T07:28:42;4.70;99.90
30648;DHT22;17683;53.360;9.736;2023-02-01T07:31:14;4.70;99.90
30648;DHT22;17683;53.360;9.736;2023-02-01T07:33:50;4.70;99.90
30648;DHT22;17683;53.360;9.736;2023-02-01T07:36:20;4.80;99.90
30648;DHT22;17683;53.360;9.736;2023-02-01T07:38:46;4.80;99.90
30648;DHT22;17683;53.360;9.736;2023-02-01T07:41:15;4.80;99.90
30648;DHT22;17683;53.360;9.736;2023-02-01T07:43:41;4.80;99.90
30648;DHT22;17683;53.360;9.736;2023-02-01T07:46:06;4.90;99.90
30648;DHT22;17683;53.360;9.736;2023-02-01T07:48:33;4.90;99.90
30648;DHT22;17683;53.360;9.736;2023-02-01T07:51:08;4.90;99.90
30648;DHT22;17683;53.360;9.736;2023-02-01T07:53:34;5.00;99.90
30648;DHT22;17683;53.360;9.736;2023-02-01T07:56:01;5.00;99.90
30648;DHT22;17683;53.360;9.736;2023-02-01T07:58:27;5.00;99.90
30648;DHT22;17683;53.360;9.736;2023-02-01T08:00:54;5.00;99.90
30648;DHT22;17683;53.360;9.736;2023-02-01T08:03:38;4.90;99.90
30648;DHT22;17683;53.360;9.736;2023-02-01T08:06:04;4.90;99.90
30648;DHT22;17683;53.360;9.736;2023-02-01T08:08:30;4.90;99.90
30648;DHT22;17683;53.360;9.736;2023-02-01T08:11:04;5.00;99.90
30648;DHT22;17683;53.360;9.736;2023-02-01T08:13:30;4.90;99.90
30648;DHT22;17683;53.360;9.736;2023-02-01T08:16:01;5.00;99.90
30648;DHT22;17683;53.360;9.736;2023-02-01T08:18:27;5.00;99.90
30648;DHT22;17683;53.360;9.736;2023-02-01T08:20:53;5.00;99.90
30648;DHT22;17683;53.360;9.736;2023-02-01T08:23:19;5.00;99.90
30648;DHT22;17683;53.360;9.736;2023-02-01T08:25:45;5.00;99.90
30648;DHT22;17683;53.360;9.736;2023-02-01T08:28:11;5.00;99.90
30648;DHT22;17683;53.360;9.736;2023-02-01T08:30:38;5.00;99.90
30648;DHT22;17683;53.360;9.736;2023-02-01T08:33:05;5.10;99.90
30648;DHT22;17683;53.360;9.736;2023-02-01T08:35:38;5.20;99.90
30648;DHT22;17683;53.360;9.736;2023-02-01T08:38:04;5.20;99.90
30648;DHT22;17683;53.360;9.736;2023-02-01T08:40:31;5.30;99.90
30648;DHT22;17683;53.360;9.736;2023-02-01T08:42:57;5.40;99.90
30648;DHT22;17683;53.360;9.736;2023-02-01T08:45:25;5.30;99.90
30648;DHT22;17683;53.360;9.736;2023-02-01T08:47:52;5.30;99.90
30648;DHT22;17683;53.360;9.736;2023-02-01T08:50:18;5.30;99.90
30648;DHT22;17683;53.360;9.736;2023-02-01T08:52:45;5.40;99.90
30648;DHT22;17683;53.360;9.736;2023-02-01T08:55:11;5.40;99.90
30648;DHT22;17683;53.360;9.736;2023-02-01T08:57:37;5.30;99.90
30648;DHT22;17683;53.360;9.736;2023-02-01T09:00:04;5.40;99.90
30648;DHT22;17683;53.360;9.736;2023-02-01T09:02:30;5.50;99.90
30648;DHT22;17683;53.360;9.736;2023-02-01T09:04:56;5.50;99.90
30648;DHT22;17683;53.360;9.736;2023-02-01T09:07:22;5.60;99.90
30648;DHT22;17683;53.360;9.736;2023-02-01T09:09:47;5.60;99.90
30648;DHT22;17683;53.360;9.736;2023-02-01T09:12:13;5.70;99.90
30648;DHT22;17683;53.360;9.736;2023-02-01T09:14:39;5.70;99.90
30648;DHT22;17683;53.360;9.736;2023-02-01T09:17:05;5.70;99.90
30648;DHT22;17683;53.360;9.736;2023-02-01T09:19:31;5.80;99.90
30648;DHT22;17683;53.360;9.736;2023-02-01T09:21:57;5.80;99.90
30648;DHT22;17683;53.360;9.736;2023-02-01T09:24:23;5.80;99.90
30648;DHT22;17683;53.360;9.736;2023-02-01T09:26:49;5.80;99.90
30648;DHT22;17683;53.360;9.736;2023-02-01T09:29:15;5.80;99.90
30648;DHT22;17683;53.360;9.736;2023-02-01T09:31:41;5.80;99.90
30648;DHT22;17683;53.360;9.736;2023-02-01T09:34:07;5.80;99.90
30648;DHT22;17683;53.360;9.736;2023-02-01T09:36:33;5.80;99.90
30648;DHT22;17683;53.360;9.736;2023-02-01T09:38:59;5.80;99.90
30648;DHT22;17683;53.360;9.736;2023-02-01T09:42:02;5.90;99.90
30648;DHT22;17683;53.360;9.736;2023-02-01T09:47:18;6.00;99.90
30648;DHT22;17683;53.360;9.736;2023-02-01T09:50:11;6.00;99.90
30648;DHT22;17683;53.360;9.736;2023-02-01T09:53:28;6.00;99.90
30648;DHT22;17683;53.360;9.736;2023-02-01T09:55:58;6.10;99.90
30648;DHT22;17683;53.360;9.736;2023-02-01T09:58:37;6.10;99.90
30648;DHT22;17683;53.360;9.736;2023-02-01T10:01:20;6.10;99.90
30648;DHT22;17683;53.360;9.736;2023-02-01T10:03:47;6.10;99.90
30648;DHT22;17683;53.360;9.736;2023-02-01T10:06:44;6.10;99.90
30648;DHT22;17683;53.360;9.736;2023-02-01T10:09:28;6.10;99.90
30648;DHT22;17683;53.360;9.736;2023-02-01T10:14:45;6.10;99.90
30648;DHT22;17683;53.360;9.736;2023-02-01T10:22:43;6.10;99.90
30648;DHT22;17683;53.360;9.736;2023-02-01T10:27:41;6.30;99.90
30648;DHT22;17683;53.360;9.736;2023-02-01T10:30:29;6.30;99.90
30648;DHT22;17683;53.360;9.736;2023-02-01T10:33:02;6.30;99.90
30648;DHT22;17683;53.360;9.736;2023-02-01T10:35:36;6.30;99.90
30648;DHT22;17683;53.360;9.736;2023-02-01T10:38:12;6.40;99.90
30648;DHT22;17683;53.360;9.736;2023-02-01T10:40:41;6.40;99.90
30648;DHT22;17683;53.360;9.736;2023-02-01T10:43:09;6.40;99.90
30648;DHT22;17683;53.360;9.736;2023-02-01T10:45:36;6.30;99.90
30648;DHT22;17683;53.360;9.736;2023-02-01T10:48:03;6.30;99.90
30648;DHT22;17683;53.360;9.736;2023-02-01T10:54:42;6.30;99.90
30648;DHT22;17683;53.360;9.736;2023-02-01T10:56:38;6.30;99.90
30648;DHT22;17683;53.360;9.736;2023-02-01T10:59:06;6.30;99.90
30648;DHT22;17683;53.360;9.736;2023-02-01T11:01:39;6.30;99.90
30648;DHT22;17683;53.360;9.736;2023-02-01T11:04:09;6.30;99.90
30648;DHT22;17683;53.360;9.736;2023-02-01T11:06:37;6.30;99.90
30648;DHT22;17683;53.360;9.736;2023-02-01T11:09:17;6.30;99.90
30648;DHT22;17683;53.360;9.736;2023-02-01T11:17:00;6.40;99.90
30648;DHT22;17683;53.360;9.736;2023-02-01T11:19:27;6.40;99.90
30648;DHT22;17683;53.360;9.736;2023-02-01T11:21:54;6.30;99.90
30648;DHT22;17683;53.360;9.736;2023-02-01T11:24:31;6.40;99.90
30648;DHT22;17683;53.360;9.736;2023-02-01T11:27:00;6.40;99.90
30648;DHT22;17683;53.360;9.736;2023-02-01T11:29:37;6.30;99.90
30648;DHT22;17683;53.360;9.736;2023-02-01T11:32:04;6.30;99.90
30648;DHT22;17683;53.360;9.736;2023-02-01T11:34:45;6.40;99.90
30648;DHT22;17683;53.360;9.736;2023-02-01T11:37:33;6.40;99.90
30648;DHT22;17683;53.360;9.736;2023-02-01T11:40:23;6.30;99.90
30648;DHT22;17683;53.360;9.736;2023-02-01T11:42:58;6.30;99.90
30648;DHT22;17683;53.360;9.736;2023-02-01T11:45:28;6.30;99.90
30648;DHT22;17683;53.360;9.736;2023-02-01T11:47:56;6.30;99.90
30648;DHT22;17683;53.360;9.736;2023-02-01T11:55:52;6.20;99.90
30648;DHT22;17683;53.360;9.736;2023-02-01T11:58:48;6.20;99.90
30648;DHT22;17683;53.360;9.736;2023-02-01T12:01:30;6.20;99.90
30648;DHT22;17683;53.360;9.736;2023-02-01T12:06:55;6.10;99.90
30648;DHT22;17683;53.360;9.736;2023-02-01T12:09:45;6.00;99.90
30648;DHT22;17683;53.360;9.736;2023-02-01T12:15:05;5.70;99.90
30648;DHT22;17683;53.360;9.736;2023-02-01T12:20:20;5.60;99.90
30648;DHT22;17683;53.360;9.736;2023-02-01T12:37:04;5.10;99.90
30648;DHT22;17683;53.360;9.736;2023-02-01T12:39:24;4.90;99.90
30648;DHT22;17683;53.360;9.736;2023-02-01T12:44:40;4.50;99.90
30648;DHT22;17683;53.360;9.736;2023-02-01T12:47:20;4.30;99.90
30648;DHT22;17683;53.360;9.736;2023-02-01T12:52:54;4.10;99.90
30648;DHT22;17683;53.360;9.736;2023-02-01T12:55:24;4.10;99.90
30648;DHT22;17683;53.360;9.736;2023-02-01T12:57:56;4.00;99.90
30648;DHT22;17683;53.360;9.736;2023-02-01T13:00:32;3.90;99.90
30648;DHT22;17683;53.360;9.736;2023-02-01T13:06:15;3.90;99.90
30648;DHT22;17683;53.360;9.736;2023-02-01T13:11:29;3.80;99.90
30648;DHT22;17683;53.360;9.736;2023-02-01T13:13:59;3.80;99.90
30648;DHT22;17683;53.360;9.736;2023-02-01T13:16:40;3.80;99.90
30648;DHT22;17683;53.360;9.736;2023-02-01T13:19:13;3.90;99.90
30648;DHT22;17683;53.360;9.736;2023-02-01T13:21:46;3.90;99.90
30648;DHT22;17683;53.360;9.736;2023-02-01T13:27:04;4.00;99.90
30648;DHT22;17683;53.360;9.736;2023-02-01T13:29:31;4.10;99.90
30648;DHT22;17683;53.360;9.736;2023-02-01T13:32:30;4.10;99.90
30648;DHT22;17683;53.360;9.736;2023-02-01T13:40:38;4.20;99.90
30648;DHT22;17683;53.360;9.736;2023-02-01T13:43:28;4.20;99.90
30648;DHT22;17683;53.360;9.736;2023-02-01T13:45:57;4.20;99.90
30648;DHT22;17683;53.360;9.736;2023-02-01T13:48:49;4.30;99.90
30648;DHT22;17683;53.360;9.736;2023-02-01T13:51:28;4.30;99.90
30648;DHT22;17683;53.360;9.736;2023-02-01T13:53:55;4.40;99.90
30648;DHT22;17683;53.360;9.736;2023-02-01T13:56:23;4.50;99.90
30648;DHT22;17683;53.360;9.736;2023-02-01T13:58:50;4.60;99.90
30648;DHT22;17683;53.360;9.736;2023-02-01T14:04:05;4.70;99.90
30648;DHT22;17683;53.360;9.736;2023-02-01T14:11:54;4.90;99.90
30648;DHT22;17683;53.360;9.736;2023-02-01T14:19:23;5.00;99.90
30648;DHT22;17683;53.360;9.736;2023-02-01T14:21:51;5.00;99.90
30648;DHT22;17683;53.360;9.736;2023-02-01T14:24:25;5.00;99.90
30648;DHT22;17683;53.360;9.736;2023-02-01T14:26:52;5.00;99.90
30648;DHT22;17683;53.360;9.736;2023-02-01T14:29:40;5.10;99.90
30648;DHT22;17683;53.360;9.736;2023-02-01T14:32:17;5.10;99.90
30648;DHT22;17683;53.360;9.736;2023-02-01T14:42:49;5.10;99.90
30648;DHT22;17683;53.360;9.736;2023-02-01T14:58:31;4.40;99.90
30648;DHT22;17683;53.360;9.736;2023-02-01T15:01:06;4.30;99.90
30648;DHT22;17683;53.360;9.736;2023-02-01T15:08:48;4.30;99.90
30648;DHT22;17683;53.360;9.736;2023-02-01T15:11:15;4.40;99.90
30648;DHT22;17683;53.360;9.736;2023-02-01T15:13:49;4.40;99.90
30648;DHT22;17683;53.360;9.736;2023-02-01T15:16:16;4.40;99.90
30648;DHT22;17683;53.360;9.736;2023-02-01T15:18:43;4.40;99.90
30648;DHT22;17683;53.360;9.736;2023-02-01T15:21:22;4.40;99.90
30648;DHT22;17683;53.360;9.736;2023-02-01T15:23:49;4.50;99.90
30648;DHT22;17683;53.360;9.736;2023-02-01T15:26:29;4.50;99.90
30648;DHT22;17683;53.360;9.736;2023-02-01T15:28:57;4.50;99.90
30648;DHT22;17683;53.360;9.736;2023-02-01T15:31:38;4.50;99.90
30648;DHT22;17683;53.360;9.736;2023-02-01T15:34:06;4.50;99.90
30648;DHT22;17683;53.360;9.736;2023-02-01T15:36:32;4.50;99.90
30648;DHT22;17683;53.360;9.736;2023-02-01T15:39:20;4.40;99.90
30648;DHT22;17683;53.360;9.736;2023-02-01T15:41:57;4.50;99.90
30648;DHT22;17683;53.360;9.736;2023-02-01T15:47:12;4.40;99.90
30648;DHT22;17683;53.360;9.736;2023-02-01T15:49:40;4.40;99.90
30648;DHT22;17683;53.360;9.736;2023-02-01T15:52:32;4.40;99.90
30648;DHT22;17683;53.360;9.736;2023-02-01T15:55:03;4.40;99.90
30648;DHT22;17683;53.360;9.736;2023-02-01T15:57:33;4.40;99.90
30648;DHT22;17683;53.360;9.736;2023-02-01T16:00:27;4.30;99.90
30648;DHT22;17683;53.360;9.736;2023-02-01T16:03:04;4.30;99.90
30648;DHT22;17683;53.360;9.736;2023-02-01T16:05:39;4.20;99.90
30648;DHT22;17683;53.360;9.736;2023-02-01T16:08:17;4.30;99.90
30648;DHT22;17683;53.360;9.736;2023-02-01T16:10:47;4.30;99.90
30648;DHT22;17683;53.360;9.736;2023-02-01T16:13:15;4.30;99.90
30648;DHT22;17683;53.360;9.736;2023-02-01T16:15:42;4.30;99.90
30648;DHT22;17683;53.360;9.736;2023-02-01T16:18:09;4.30;99.90
30648;DHT22;17683;53.360;9.736;2023-02-01T16:20:37;4.30;99.90
30648;DHT22;17683;53.360;9.736;2023-02-01T16:23:03;4.30;99.90
30648;DHT22;17683;53.360;9.736;2023-02-01T16:25:29;4.40;99.90
30648;DHT22;17683;53.360;9.736;2023-02-01T16:27:55;4.30;99.90
30648;DHT22;17683;53.360;9.736;2023-02-01T16:30:21;4.40;99.90
30648;DHT22;17683;53.360;9.736;2023-02-01T16:32:52;4.40;99.90
30648;DHT22;17683;53.360;9.736;2023-02-01T16:35:38;4.40;99.90
30648;DHT22;17683;53.360;9.736;2023-02-01T16:38:15;4.50;99.90
30648;DHT22;17683;53.360;9.736;2023-02-01T16:40:45;4.50;99.90
30648;DHT22;17683;53.360;9.736;2023-02-01T16:43:16;4.50;99.90
30648;DHT22;17683;53.360;9.736;2023-02-01T16:45:43;4.50;99.90
30648;DHT22;17683;53.360;9.736;2023-02-01T16:48:30;4.50;99.90
30648;DHT22;17683;53.360;9.736;2023-02-01T16:50:59;4.50;99.90
30648;DHT22;17683;53.360;9.736;2023-02-01T16:53:27;4.50;99.90
30648;DHT22;17683;53.360;9.736;2023-02-01T16:55:55;4.50;99.90
30648;DHT22;17683;53.360;9.736;2023-02-01T16:58:23;4.50;99.90
30648;DHT22;17683;53.360;9.736;2023-02-01T17:00:50;4.50;99.90
30648;DHT22;17683;53.360;9.736;2023-02-01T17:03:19;4.40;99.90
30648;DHT22;17683;53.360;9.736;2023-02-01T17:05:49;4.50;99.90
30648;DHT22;17683;53.360;9.736;2023-02-01T17:08:21;4.40;99.90
30648;DHT22;17683;53.360;9.736;2023-02-01T17:10:47;4.40;99.90
30648;DHT22;17683;53.360;9.736;2023-02-01T17:13:15;4.40;99.90
30648;DHT22;17683;53.360;9.736;2023-02-01T17:15:49;4.40;99.90
30648;DHT22;17683;53.360;9.736;2023-02-01T17:18:16;4.40;99.90
30648;DHT22;17683;53.360;9.736;2023-02-01T17:20:42;4.40;99.90
30648;DHT22;17683;53.360;9.736;2023-02-01T17:23:08;4.50;99.90
30648;DHT22;17683;53.360;9.736;2023-02-01T17:25:34;4.50;99.90
30648;DHT22;17683;53.360;9.736;2023-02-01T17:28:00;4.60;99.90
30648;DHT22;17683;53.360;9.736;2023-02-01T17:30:25;4.60;99.90
30648;DHT22;17683;53.360;9.736;2023-02-01T17:32:51;4.60;99.90
30648;DHT22;17683;53.360;9.736;2023-02-01T17:35:22;4.60;99.90
30648;DHT22;17683;53.360;9.736;2023-02-01T17:37:49;4.60;99.90
30648;DHT22;17683;53.360;9.736;2023-02-01T17:40:15;4.60;99.90
30648;DHT22;17683;53.360;9.736;2023-02-01T17:42:41;4.60;99.90
30648;DHT22;17683;53.360;9.736;2023-02-01T17:45:32;4.60;99.90
30648;DHT22;17683;53.360;9.736;2023-02-01T17:48:04;4.50;99.90
30648;DHT22;17683;53.360;9.736;2023-02-01T17:50:31;4.50;99.90
30648;DHT22;17683;53.360;9.736;2023-02-01T17:52:57;4.50;99.90
30648;DHT22;17683;53.360;9.736;2023-02-01T17:55:25;4.50;99.90
30648;DHT22;17683;53.360;9.736;2023-02-01T17:57:51;4.40;99.90
30648;DHT22;17683;53.360;9.736;2023-02-01T18:00:17;4.40;99.90
30648;DHT22;17683;53.360;9.736;2023-02-01T18:02:44;4.40;99.90
30648;DHT22;17683;53.360;9.736;2023-02-01T18:05:40;4.30;99.90
30648;DHT22;17683;53.360;9.736;2023-02-01T18:08:07;4.30;99.90
30648;DHT22;17683;53.360;9.736;2023-02-01T18:10:34;4.30;99.90
30648;DHT22;17683;53.360;9.736;2023-02-01T18:13:01;4.20;99.90
30648;DHT22;17683;53.360;9.736;2023-02-01T18:15:29;4.20;99.90
30648;DHT22;17683;53.360;9.736;2023-02-01T18:17:55;4.20;99.90
30648;DHT22;17683;53.360;9.736;2023-02-01T18:20:23;4.20;99.90
30648;DHT22;17683;53.360;9.736;2023-02-01T18:22:49;4.20;99.90
30648;DHT22;17683;53.360;9.736;2023-02-01T18:25:24;4.10;99.90
30648;DHT22;17683;53.360;9.736;2023-02-01T18:27:52;4.10;99.90
30648;DHT22;17683;53.360;9.736;2023-02-01T18:30:23;4.10;99.90
30648;DHT22;17683;53.360;9.736;2023-02-01T18:32:49;4.10;99.90